Weather at Orlando International Airport

Public forecast

Using degrees Fahrenheit for public forecast. Weather courtesy of forecast.io.

Current aviation weather report (METAR) for Orlando International Airport

Retrieved 2021/10/22 04:53 UTC (15 minutes ago):

KMCO 220453Z 00000KT 10SM FEW250 22/20 A3009 RMK AO2 SLP187 T02220200 403170200

Aviation forecast (TAF) for Orlando International Airport

Retrieved 2021-10-22 00:34 UTC (5 hours ago):

TAF KMCO 212332Z 2200/2306 10004KT P6SM FEW250 FM221500 08005KT P6SM SCT035 SCT250 FM230000 09005KT P6SM SCT050 SCT250